createdAt,value
2019-05-14T00:03:51.447Z,8.66
2019-05-14T00:08:53.339Z,8.50
2019-05-14T00:13:55.558Z,8.44
2019-05-14T00:18:57.979Z,8.44
2019-05-14T00:24:01.834Z,8.49
2019-05-14T00:29:04.812Z,8.42
2019-05-14T00:34:07.237Z,8.35
2019-05-14T00:39:11.221Z,8.33
2019-05-14T00:44:13.678Z,8.27
2019-05-14T00:49:16.024Z,8.14
2019-05-14T00:54:18.173Z,8.07
2019-05-14T00:59:21.640Z,8.06
2019-05-14T01:04:24.015Z,8.02
2019-05-14T01:09:26.211Z,8.00
2019-05-14T01:14:28.294Z,8.02
2019-05-14T01:19:31.589Z,8.03
2019-05-14T01:24:33.910Z,7.94
2019-05-14T01:29:37.152Z,8.07
2019-05-14T01:34:41.683Z,7.95
2019-05-14T01:39:43.578Z,7.91
2019-05-14T01:44:45.715Z,8.00
2019-05-14T01:49:47.730Z,8.02
2019-05-14T01:54:51.522Z,7.84
2019-05-14T01:59:53.863Z,7.76
2019-05-14T02:04:56.044Z,7.69
2019-05-14T02:09:58.033Z,7.65
2019-05-14T02:15:01.920Z,7.55
2019-05-14T02:20:05.145Z,7.63
2019-05-14T02:25:07.949Z,7.69
2019-05-14T02:30:10.332Z,7.77
2019-05-14T02:35:12.770Z,7.75
2019-05-14T02:40:14.958Z,7.78
2019-05-14T02:45:19.829Z,7.65
2019-05-14T02:50:21.301Z,7.57
2019-05-14T02:55:23.563Z,7.49
2019-05-14T03:00:25.766Z,7.29
2019-05-14T03:05:29.552Z,7.05
2019-05-14T03:10:32.057Z,6.91
2019-05-14T03:15:34.287Z,6.77
2019-05-14T03:20:38.967Z,6.44
2019-05-14T03:25:40.693Z,6.44
2019-05-14T03:30:44.398Z,6.33
2019-05-14T03:38:52.991Z,6.28
2019-05-14T03:43:55.195Z,6.15
2019-05-14T03:49:00.051Z,6.17
2019-05-14T03:54:07.119Z,6.11
2019-05-14T03:59:09.239Z,6.08
2019-05-14T04:04:10.530Z,6.07
2019-05-14T04:09:13.709Z,6.01
2019-05-14T04:14:20.101Z,5.98
2019-05-14T04:19:23.654Z,5.86
2019-05-14T04:24:29.785Z,5.75
2019-05-14T04:29:34.158Z,5.77
2019-05-14T04:34:39.374Z,5.79
2019-05-14T04:39:40.503Z,5.80
2019-05-14T04:44:42.834Z,5.83
2019-05-14T04:49:44.926Z,6.52
2019-05-14T04:54:49.939Z,6.30
2019-05-14T04:59:51.104Z,6.27
2019-05-14T05:04:53.119Z,6.40
2019-05-14T05:09:55.149Z,6.54
2019-05-14T05:14:58.610Z,6.67
2019-05-14T05:20:00.835Z,6.81
2019-05-14T05:25:03.198Z,6.96
2019-05-14T05:30:05.598Z,7.07
2019-05-14T05:35:09.651Z,7.14
2019-05-14T05:40:12.412Z,7.22
2019-05-14T05:45:14.945Z,7.52
2019-05-14T05:50:19.328Z,7.76
2019-05-14T05:55:21.556Z,7.79
2019-05-14T06:00:34.384Z,7.87
2019-05-14T06:05:44.440Z,7.95
2019-05-14T06:10:48.951Z,8.05
2019-05-14T06:15:52.313Z,8.12
2019-05-14T06:20:54.757Z,8.10
2019-05-14T06:25:59.709Z,8.27
2019-05-14T06:31:01.187Z,8.32
2019-05-14T06:36:03.301Z,8.29
2019-05-14T06:41:05.457Z,8.35
2019-05-14T06:46:09.183Z,8.54
2019-05-14T06:51:12.460Z,8.56
2019-05-14T06:56:17.769Z,8.71
2019-05-14T07:01:18.825Z,8.61
2019-05-14T07:06:20.989Z,8.67
2019-05-14T07:11:24.365Z,8.89
2019-05-14T07:16:28.740Z,9.01
2019-05-14T07:21:30.516Z,9.07
2019-05-14T07:26:32.920Z,9.53
2019-05-14T07:31:35.019Z,9.55
2019-05-14T07:36:38.663Z,9.60
2019-05-14T07:41:40.918Z,9.68
2019-05-14T07:46:43.054Z,9.93
2019-05-14T07:51:45.158Z,9.69
2019-05-14T07:56:50.880Z,9.88
2019-05-14T08:01:51.634Z,10.12
2019-05-14T08:06:53.936Z,10.24
2019-05-14T08:11:58.557Z,10.25
2019-05-14T08:17:00.419Z,10.32
2019-05-14T08:22:02.615Z,10.25
2019-05-14T08:27:05.813Z,10.20
2019-05-14T08:32:08.803Z,10.32
2019-05-14T08:37:11.248Z,10.51
2019-05-14T08:42:13.356Z,10.68
2019-05-14T08:47:18.330Z,10.88
2019-05-14T08:52:20.569Z,11.04
2019-05-14T08:57:22.702Z,10.99
2019-05-14T09:02:25.034Z,10.86
2019-05-14T09:07:28.955Z,10.64
2019-05-14T09:12:31.027Z,10.76
2019-05-14T09:17:33.260Z,11.06
2019-05-14T09:22:36.097Z,11.36
2019-05-14T09:27:38.897Z,11.36
2019-05-14T09:32:41.062Z,11.19
2019-05-14T09:37:43.104Z,11.07
2019-05-14T09:42:45.218Z,11.24
2019-05-14T09:47:50.402Z,11.01
2019-05-14T09:52:51.409Z,11.07
2019-05-14T09:57:53.525Z,11.22
2019-05-14T10:02:55.696Z,11.38
2019-05-14T10:07:59.416Z,11.47
2019-05-14T10:13:02.021Z,11.38
2019-05-14T10:18:05.666Z,11.24
2019-05-14T10:23:09.376Z,11.18
2019-05-14T10:28:11.722Z,11.10
2019-05-14T10:33:14.898Z,11.15
2019-05-14T10:38:19.020Z,11.45
2019-05-14T10:43:21.363Z,12.02
2019-05-14T10:48:23.554Z,12.00
2019-05-14T10:53:28.659Z,12.00
2019-05-14T10:58:29.724Z,12.07
2019-05-14T11:03:31.947Z,12.07
2019-05-14T11:08:33.956Z,12.66
2019-05-14T11:13:36.178Z,12.79
2019-05-14T11:18:40.004Z,13.11
2019-05-14T11:23:43.254Z,13.07
2019-05-14T11:28:45.379Z,12.44
2019-05-14T11:33:49.637Z,12.35
2019-05-14T11:38:52.130Z,12.74
2019-05-14T11:43:54.380Z,12.99
2019-05-14T11:48:59.198Z,12.71
2019-05-14T11:54:00.511Z,12.51
2019-05-14T11:59:02.781Z,12.58
2019-05-14T12:04:08.697Z,12.38
2019-05-14T12:09:11.796Z,12.54
2019-05-14T12:14:14.097Z,12.56
2019-05-14T12:19:18.675Z,13.05
2019-05-14T12:24:20.322Z,13.05
2019-05-14T12:29:22.344Z,13.09
2019-05-14T12:34:29.275Z,13.52
2019-05-14T12:39:31.417Z,13.48
2019-05-14T12:44:37.214Z,13.54
2019-05-14T12:49:39.333Z,13.13
2019-05-14T12:54:41.438Z,13.19
2019-05-14T12:59:43.788Z,12.71
2019-05-14T13:04:48.626Z,12.60
2019-05-14T13:09:50.888Z,12.63
2019-05-14T13:14:52.906Z,12.82
2019-05-14T13:19:56.174Z,13.02
2019-05-14T13:24:58.302Z,12.99
2019-05-14T13:30:00.345Z,12.98
2019-05-14T13:35:02.912Z,12.74
2019-05-14T13:40:05.581Z,12.95
2019-05-14T13:45:10.363Z,13.25
2019-05-14T13:50:12.682Z,13.46
2019-05-14T13:55:15.484Z,12.96
2019-05-14T14:00:19.891Z,12.66
2019-05-14T14:05:21.735Z,12.62
2019-05-14T14:10:24.015Z,12.63
2019-05-14T14:15:28.733Z,12.78
2019-05-14T14:20:30.291Z,13.11
2019-05-14T14:25:32.517Z,13.14
2019-05-14T14:30:34.627Z,13.30
2019-05-14T14:35:38.785Z,13.21
2019-05-14T14:40:40.884Z,12.99
2019-05-14T14:45:45.242Z,12.42
2019-05-14T14:50:49.667Z,12.30
2019-05-14T14:55:51.188Z,12.40
2019-05-14T15:01:00.335Z,12.50
2019-05-14T15:06:02.551Z,12.60
2019-05-14T15:11:04.651Z,12.80
2019-05-14T15:16:12.831Z,13.36
2019-05-14T15:21:11.084Z,13.67
2019-05-14T15:26:13.581Z,13.71
2019-05-14T15:31:15.688Z,13.98
2019-05-14T15:36:19.695Z,13.93
2019-05-14T15:41:22.256Z,13.66
2019-05-14T15:46:24.421Z,13.70
2019-05-14T15:51:28.503Z,13.31
2019-05-14T15:56:30.431Z,13.05
2019-05-14T16:01:32.470Z,12.86
2019-05-14T16:06:34.519Z,12.81
2019-05-14T16:11:36.503Z,12.71
2019-05-14T16:16:39.183Z,12.68
2019-05-14T16:21:41.628Z,12.57
2019-05-14T16:26:43.917Z,12.73
2019-05-14T16:31:48.567Z,12.83
2019-05-14T16:36:50.236Z,12.53
2019-05-14T16:41:52.238Z,12.28
2019-05-14T16:46:54.263Z,12.51
2019-05-14T16:51:59.393Z,12.61
2019-05-14T16:57:00.248Z,12.62
2019-05-14T17:02:02.444Z,12.68
2019-05-14T17:07:04.734Z,12.78
2019-05-14T17:12:08.524Z,12.73
2019-05-14T17:17:10.878Z,12.65
2019-05-14T17:22:25.432Z,12.74
2019-05-14T17:27:17.273Z,12.63
2019-05-14T17:32:19.463Z,12.58
2019-05-14T17:37:23.961Z,12.50
2019-05-14T17:42:28.351Z,12.37
2019-05-14T17:47:30.614Z,12.25
2019-05-14T17:52:32.593Z,12.06
2019-05-14T17:57:35.919Z,11.96
2019-05-14T18:02:38.958Z,11.81
2019-05-14T18:07:41.359Z,11.73
2019-05-14T18:12:43.785Z,11.57
2019-05-14T18:17:46.001Z,11.39
2019-05-14T18:22:48.704Z,11.21
2019-05-14T18:27:50.832Z,11.03
2019-05-14T18:32:54.234Z,10.84
2019-05-14T18:37:56.343Z,10.73
2019-05-14T18:42:59.346Z,10.49
2019-05-14T18:48:01.515Z,10.19
2019-05-14T18:53:03.618Z,10.10
2019-05-14T18:58:08.427Z,9.98
2019-05-14T19:03:10.585Z,9.90
2019-05-14T19:08:12.744Z,9.66
2019-05-14T19:13:14.977Z,9.38
2019-05-14T19:18:19.151Z,9.30
2019-05-14T19:23:21.060Z,9.19
2019-05-14T19:28:23.167Z,9.05
2019-05-14T19:33:25.260Z,8.93
2019-05-14T19:38:27.384Z,8.86
2019-05-14T19:43:29.575Z,8.76
2019-05-14T19:48:33.020Z,8.82
2019-05-14T19:53:35.172Z,8.84
2019-05-14T19:58:38.433Z,8.78
2019-05-14T20:03:40.816Z,8.71
2019-05-14T20:08:43.021Z,8.59
2019-05-14T20:13:45.111Z,8.38
2019-05-14T20:18:48.737Z,8.13
2019-05-14T20:23:51.047Z,7.95
2019-05-14T20:28:53.149Z,7.87
2019-05-14T20:33:55.162Z,7.88
2019-05-14T20:38:58.934Z,7.83
2019-05-14T20:44:01.355Z,7.78
2019-05-14T20:49:03.686Z,7.73
2019-05-14T20:54:05.869Z,7.63
2019-05-14T20:59:08.366Z,7.57
2019-05-14T21:04:10.773Z,7.52
2019-05-14T21:09:13.332Z,7.45
2019-05-14T21:14:18.151Z,7.34
2019-05-14T21:19:19.827Z,7.30
2019-05-14T21:24:22.190Z,7.26
2019-05-14T21:29:24.355Z,7.28
2019-05-14T21:34:28.220Z,7.29
2019-05-14T21:39:30.478Z,7.25
2019-05-14T21:44:32.538Z,7.24
2019-05-14T21:49:34.621Z,7.20
2019-05-14T21:54:39.286Z,7.11
2019-05-14T21:59:40.968Z,7.07
2019-05-14T22:04:42.973Z,6.97
2019-05-14T22:09:45.488Z,6.89
2019-05-14T22:14:48.202Z,6.84
2019-05-14T22:19:50.411Z,6.71
2019-05-14T22:24:52.495Z,6.71
2019-05-14T22:29:54.620Z,6.60
2019-05-14T22:34:58.572Z,6.49
2019-05-14T22:40:00.931Z,6.38
2019-05-14T22:45:03.857Z,6.34
2019-05-14T22:50:08.523Z,6.25
2019-05-14T22:55:10.710Z,6.07
2019-05-14T23:00:13.159Z,5.92
2019-05-14T23:05:19.088Z,5.81
2019-05-14T23:10:21.091Z,5.61
2019-05-14T23:15:24.500Z,5.44
2019-05-14T23:20:28.986Z,5.25
2019-05-14T23:25:30.456Z,5.13
2019-05-14T23:30:32.999Z,5.07
2019-05-14T23:35:35.368Z,4.97
2019-05-14T23:40:38.735Z,4.94
2019-05-14T23:45:41.157Z,4.96
2019-05-14T23:50:43.220Z,5.00
2019-05-14T23:55:45.244Z,5.04
